sensor_id;sensor_type;location;lat;lon;timestamp;P1;durP1;ratioP1;P2;durP2;ratioP2
51778;SDS011;37843;53.266;6.746;2022-09-01T00:00:54;2.75;;;1.30;;
51778;SDS011;37843;53.266;6.746;2022-09-01T00:03:21;1.50;;;1.40;;
51778;SDS011;37843;53.266;6.746;2022-09-01T00:05:48;1.30;;;1.20;;
51778;SDS011;37843;53.266;6.746;2022-09-01T00:08:15;3.15;;;1.50;;
51778;SDS011;37843;53.266;6.746;2022-09-01T00:10:41;1.77;;;1.20;;
51778;SDS011;37843;53.266;6.746;2022-09-01T00:13:07;1.27;;;1.17;;
51778;SDS011;37843;53.266;6.746;2022-09-01T00:15:34;1.98;;;1.25;;
51778;SDS011;37843;53.266;6.746;2022-09-01T00:18:01;1.92;;;1.63;;
51778;SDS011;37843;53.266;6.746;2022-09-01T00:20:29;2.70;;;1.20;;
51778;SDS011;37843;53.266;6.746;2022-09-01T00:22:55;1.88;;;1.40;;
51778;SDS011;37843;53.266;6.746;2022-09-01T00:25:21;1.70;;;1.42;;
51778;SDS011;37843;53.266;6.746;2022-09-01T00:27:49;2.72;;;1.67;;
51778;SDS011;37843;53.266;6.746;2022-09-01T00:30:16;1.73;;;1.45;;
51778;SDS011;37843;53.266;6.746;2022-09-01T00:32:42;1.33;;;1.20;;
51778;SDS011;37843;53.266;6.746;2022-09-01T00:35:11;1.63;;;1.10;;
51778;SDS011;37843;53.266;6.746;2022-09-01T00:37:37;1.83;;;1.60;;
51778;SDS011;37843;53.266;6.746;2022-09-01T00:40:04;2.50;;;1.35;;
51778;SDS011;37843;53.266;6.746;2022-09-01T00:42:30;1.83;;;1.10;;
51778;SDS011;37843;53.266;6.746;2022-09-01T00:44:56;2.42;;;1.30;;
51778;SDS011;37843;53.266;6.746;2022-09-01T00:47:22;2.28;;;1.40;;
51778;SDS011;37843;53.266;6.746;2022-09-01T00:49:48;1.50;;;1.40;;
51778;SDS011;37843;53.266;6.746;2022-09-01T00:52:25;2.25;;;1.55;;
51778;SDS011;37843;53.266;6.746;2022-09-01T00:54:55;1.27;;;1.10;;
51778;SDS011;37843;53.266;6.746;2022-09-01T00:57:22;2.78;;;1.63;;
51778;SDS011;37843;53.266;6.746;2022-09-01T00:59:50;2.33;;;1.50;;
51778;SDS011;37843;53.266;6.746;2022-09-01T01:02:18;1.50;;;1.40;;
51778;SDS011;37843;53.266;6.746;2022-09-01T01:04:44;2.85;;;1.50;;
51778;SDS011;37843;53.266;6.746;2022-09-01T01:07:10;2.58;;;1.27;;
51778;SDS011;37843;53.266;6.746;2022-09-01T01:09:38;2.05;;;1.38;;
51778;SDS011;37843;53.266;6.746;2022-09-01T01:12:05;2.13;;;1.27;;
51778;SDS011;37843;53.266;6.746;2022-09-01T01:14:33;1.58;;;1.25;;
51778;SDS011;37843;53.266;6.746;2022-09-01T01:17:01;1.30;;;1.20;;
51778;SDS011;37843;53.266;6.746;2022-09-01T01:25:08;2.10;;;1.10;;
51778;SDS011;37843;53.266;6.746;2022-09-01T01:27:37;1.50;;;1.40;;
51778;SDS011;37843;53.266;6.746;2022-09-01T01:30:07;1.20;;;1.10;;
51778;SDS011;37843;53.266;6.746;2022-09-01T01:32:35;1.90;;;1.13;;
51778;SDS011;37843;53.266;6.746;2022-09-01T01:35:02;1.65;;;1.40;;
51778;SDS011;37843;53.266;6.746;2022-09-01T01:37:30;1.50;;;1.40;;
51778;SDS011;37843;53.266;6.746;2022-09-01T01:39:59;1.88;;;1.67;;
51778;SDS011;37843;53.266;6.746;2022-09-01T01:42:26;1.88;;;1.42;;
51778;SDS011;37843;53.266;6.746;2022-09-01T01:44:53;2.67;;;1.60;;
51778;SDS011;37843;53.266;6.746;2022-09-01T01:47:19;1.58;;;1.40;;
51778;SDS011;37843;53.266;6.746;2022-09-01T01:49:45;2.03;;;1.40;;
51778;SDS011;37843;53.266;6.746;2022-09-01T01:52:12;1.75;;;1.50;;
51778;SDS011;37843;53.266;6.746;2022-09-01T01:54:45;2.33;;;1.45;;
51778;SDS011;37843;53.266;6.746;2022-09-01T01:57:11;1.60;;;1.50;;
51778;SDS011;37843;53.266;6.746;2022-09-01T01:59:42;1.50;;;1.40;;
51778;SDS011;37843;53.266;6.746;2022-09-01T02:02:08;2.50;;;1.40;;
51778;SDS011;37843;53.266;6.746;2022-09-01T02:04:36;1.67;;;1.23;;
51778;SDS011;37843;53.266;6.746;2022-09-01T02:07:04;1.83;;;1.60;;
51778;SDS011;37843;53.266;6.746;2022-09-01T02:09:34;1.67;;;1.35;;
51778;SDS011;37843;53.266;6.746;2022-09-01T02:12:03;1.42;;;1.33;;
51778;SDS011;37843;53.266;6.746;2022-09-01T02:14:31;2.08;;;1.77;;
51778;SDS011;37843;53.266;6.746;2022-09-01T02:16:58;2.13;;;1.48;;
51778;SDS011;37843;53.266;6.746;2022-09-01T02:19:26;1.90;;;1.50;;
51778;SDS011;37843;53.266;6.746;2022-09-01T02:21:52;3.00;;;1.50;;
51778;SDS011;37843;53.266;6.746;2022-09-01T02:24:20;1.30;;;1.10;;
51778;SDS011;37843;53.266;6.746;2022-09-01T02:26:46;2.55;;;1.52;;
51778;SDS011;37843;53.266;6.746;2022-09-01T02:29:16;3.38;;;2.28;;
51778;SDS011;37843;53.266;6.746;2022-09-01T02:31:46;1.50;;;1.40;;
51778;SDS011;37843;53.266;6.746;2022-09-01T02:34:12;2.20;;;1.60;;
51778;SDS011;37843;53.266;6.746;2022-09-01T02:36:39;1.40;;;1.30;;
51778;SDS011;37843;53.266;6.746;2022-09-01T02:39:08;1.42;;;1.33;;
51778;SDS011;37843;53.266;6.746;2022-09-01T02:41:35;2.03;;;1.20;;
51778;SDS011;37843;53.266;6.746;2022-09-01T02:44:02;1.55;;;1.30;;
51778;SDS011;37843;53.266;6.746;2022-09-01T02:46:36;2.13;;;1.83;;
51778;SDS011;37843;53.266;6.746;2022-09-01T02:49:05;1.67;;;1.55;;
51778;SDS011;37843;53.266;6.746;2022-09-01T02:51:39;1.40;;;1.30;;
51778;SDS011;37843;53.266;6.746;2022-09-01T02:54:05;1.58;;;1.27;;
51778;SDS011;37843;53.266;6.746;2022-09-01T02:56:31;2.10;;;1.63;;
51778;SDS011;37843;53.266;6.746;2022-09-01T02:58:58;3.05;;;1.60;;
51778;SDS011;37843;53.266;6.746;2022-09-01T03:01:28;1.58;;;1.48;;
51778;SDS011;37843;53.266;6.746;2022-09-01T03:03:56;1.65;;;1.55;;
51778;SDS011;37843;53.266;6.746;2022-09-01T03:06:22;1.52;;;1.40;;
51778;SDS011;37843;53.266;6.746;2022-09-01T03:08:52;2.97;;;1.52;;
51778;SDS011;37843;53.266;6.746;2022-09-01T03:11:20;1.40;;;1.30;;
51778;SDS011;37843;53.266;6.746;2022-09-01T03:13:47;2.80;;;1.40;;
51778;SDS011;37843;53.266;6.746;2022-09-01T03:16:13;2.45;;;1.60;;
51778;SDS011;37843;53.266;6.746;2022-09-01T03:18:40;1.63;;;1.42;;
51778;SDS011;37843;53.266;6.746;2022-09-01T03:21:07;3.35;;;1.70;;
51778;SDS011;37843;53.266;6.746;2022-09-01T03:23:34;1.27;;;1.17;;
51778;SDS011;37843;53.266;6.746;2022-09-01T03:26:00;1.60;;;1.50;;
51778;SDS011;37843;53.266;6.746;2022-09-01T03:28:27;3.58;;;1.83;;
51778;SDS011;37843;53.266;6.746;2022-09-01T03:30:54;2.25;;;1.52;;
51778;SDS011;37843;53.266;6.746;2022-09-01T03:33:21;1.60;;;1.45;;
51778;SDS011;37843;53.266;6.746;2022-09-01T03:35:47;1.73;;;1.63;;
51778;SDS011;37843;53.266;6.746;2022-09-01T03:38:14;1.67;;;1.50;;
51778;SDS011;37843;53.266;6.746;2022-09-01T03:40:45;2.78;;;1.80;;
51778;SDS011;37843;53.266;6.746;2022-09-01T03:43:11;1.92;;;1.80;;
51778;SDS011;37843;53.266;6.746;2022-09-01T03:45:38;1.73;;;1.63;;
51778;SDS011;37843;53.266;6.746;2022-09-01T03:48:05;3.30;;;1.77;;
51778;SDS011;37843;53.266;6.746;2022-09-01T03:50:35;2.50;;;1.70;;
51778;SDS011;37843;53.266;6.746;2022-09-01T03:53:04;1.95;;;1.80;;
51778;SDS011;37843;53.266;6.746;2022-09-01T03:55:31;2.30;;;1.90;;
51778;SDS011;37843;53.266;6.746;2022-09-01T03:57:59;2.03;;;1.70;;
51778;SDS011;37843;53.266;6.746;2022-09-01T04:00:30;1.80;;;1.60;;
51778;SDS011;37843;53.266;6.746;2022-09-01T04:02:56;1.90;;;1.77;;
51778;SDS011;37843;53.266;6.746;2022-09-01T04:05:24;1.60;;;1.50;;
51778;SDS011;37843;53.266;6.746;2022-09-01T04:07:53;1.90;;;1.70;;
51778;SDS011;37843;53.266;6.746;2022-09-01T04:10:19;2.15;;;1.90;;
51778;SDS011;37843;53.266;6.746;2022-09-01T04:12:46;2.33;;;1.55;;
51778;SDS011;37843;53.266;6.746;2022-09-01T04:15:13;1.73;;;1.60;;
51778;SDS011;37843;53.266;6.746;2022-09-01T04:17:41;1.85;;;1.70;;
51778;SDS011;37843;53.266;6.746;2022-09-01T04:20:27;1.77;;;1.60;;
51778;SDS011;37843;53.266;6.746;2022-09-01T04:22:53;2.75;;;2.00;;
51778;SDS011;37843;53.266;6.746;2022-09-01T04:25:20;2.67;;;1.77;;
51778;SDS011;37843;53.266;6.746;2022-09-01T04:27:50;1.70;;;1.60;;
51778;SDS011;37843;53.266;6.746;2022-09-01T04:30:19;1.73;;;1.55;;
51778;SDS011;37843;53.266;6.746;2022-09-01T04:32:49;1.75;;;1.52;;
51778;SDS011;37843;53.266;6.746;2022-09-01T04:35:16;2.08;;;1.67;;
51778;SDS011;37843;53.266;6.746;2022-09-01T04:37:43;1.95;;;1.70;;
51778;SDS011;37843;53.266;6.746;2022-09-01T04:40:12;1.55;;;1.45;;
51778;SDS011;37843;53.266;6.746;2022-09-01T04:42:39;1.75;;;1.65;;
51778;SDS011;37843;53.266;6.746;2022-09-01T04:45:07;1.40;;;1.30;;
51778;SDS011;37843;53.266;6.746;2022-09-01T04:47:35;1.95;;;1.75;;
51778;SDS011;37843;53.266;6.746;2022-09-01T04:50:06;2.10;;;1.70;;
51778;SDS011;37843;53.266;6.746;2022-09-01T04:52:37;2.35;;;1.75;;
51778;SDS011;37843;53.266;6.746;2022-09-01T04:55:05;1.88;;;1.60;;
51778;SDS011;37843;53.266;6.746;2022-09-01T04:57:32;1.95;;;1.65;;
51778;SDS011;37843;53.266;6.746;2022-09-01T04:59:59;2.85;;;1.67;;
51778;SDS011;37843;53.266;6.746;2022-09-01T05:02:25;1.95;;;1.70;;
51778;SDS011;37843;53.266;6.746;2022-09-01T05:04:53;1.60;;;1.50;;
51778;SDS011;37843;53.266;6.746;2022-09-01T05:07:22;4.25;;;1.90;;
51778;SDS011;37843;53.266;6.746;2022-09-01T05:09:48;1.70;;;1.60;;
51778;SDS011;37843;53.266;6.746;2022-09-01T05:12:14;7.60;;;1.75;;
51778;SDS011;37843;53.266;6.746;2022-09-01T05:14:43;2.53;;;1.67;;
51778;SDS011;37843;53.266;6.746;2022-09-01T05:17:11;1.77;;;1.67;;
51778;SDS011;37843;53.266;6.746;2022-09-01T05:19:38;1.75;;;1.55;;
51778;SDS011;37843;53.266;6.746;2022-09-01T05:22:05;2.80;;;1.98;;
51778;SDS011;37843;53.266;6.746;2022-09-01T05:24:33;1.60;;;1.50;;
51778;SDS011;37843;53.266;6.746;2022-09-01T05:26:59;3.03;;;2.03;;
51778;SDS011;37843;53.266;6.746;2022-09-01T05:29:25;5.45;;;2.03;;
51778;SDS011;37843;53.266;6.746;2022-09-01T05:31:52;1.70;;;1.60;;
51778;SDS011;37843;53.266;6.746;2022-09-01T05:34:19;2.40;;;1.60;;
51778;SDS011;37843;53.266;6.746;2022-09-01T05:36:51;2.17;;;1.52;;
51778;SDS011;37843;53.266;6.746;2022-09-01T05:39:17;2.78;;;1.60;;
51778;SDS011;37843;53.266;6.746;2022-09-01T05:41:43;2.58;;;1.80;;
51778;SDS011;37843;53.266;6.746;2022-09-01T05:44:10;2.17;;;1.73;;
51778;SDS011;37843;53.266;6.746;2022-09-01T05:46:38;2.08;;;1.60;;
51778;SDS011;37843;53.266;6.746;2022-09-01T05:49:05;2.17;;;1.70;;
51778;SDS011;37843;53.266;6.746;2022-09-01T05:51:32;2.20;;;1.95;;
51778;SDS011;37843;53.266;6.746;2022-09-01T05:54:01;1.85;;;1.70;;
51778;SDS011;37843;53.266;6.746;2022-09-01T05:56:29;2.20;;;1.65;;
51778;SDS011;37843;53.266;6.746;2022-09-01T05:58:58;2.78;;;2.00;;
51778;SDS011;37843;53.266;6.746;2022-09-01T06:01:25;2.63;;;1.50;;
51778;SDS011;37843;53.266;6.746;2022-09-01T06:03:53;1.90;;;1.70;;
51778;SDS011;37843;53.266;6.746;2022-09-01T06:06:21;1.75;;;1.50;;
51778;SDS011;37843;53.266;6.746;2022-09-01T06:08:50;3.35;;;1.80;;
51778;SDS011;37843;53.266;6.746;2022-09-01T06:11:17;4.60;;;2.00;;
51778;SDS011;37843;53.266;6.746;2022-09-01T06:13:44;2.53;;;2.13;;
51778;SDS011;37843;53.266;6.746;2022-09-01T06:16:14;2.17;;;1.85;;
51778;SDS011;37843;53.266;6.746;2022-09-01T06:18:44;1.63;;;1.52;;
51778;SDS011;37843;53.266;6.746;2022-09-01T06:21:10;2.08;;;1.70;;
51778;SDS011;37843;53.266;6.746;2022-09-01T06:23:41;2.13;;;1.92;;
51778;SDS011;37843;53.266;6.746;2022-09-01T06:26:18;4.00;;;1.67;;
51778;SDS011;37843;53.266;6.746;2022-09-01T06:28:44;4.10;;;1.80;;
51778;SDS011;37843;53.266;6.746;2022-09-01T06:31:11;1.55;;;1.45;;
51778;SDS011;37843;53.266;6.746;2022-09-01T06:33:37;2.38;;;1.80;;
51778;SDS011;37843;53.266;6.746;2022-09-01T06:36:04;2.63;;;2.15;;
51778;SDS011;37843;53.266;6.746;2022-09-01T06:38:32;5.85;;;1.83;;
51778;SDS011;37843;53.266;6.746;2022-09-01T06:41:02;1.92;;;1.67;;
51778;SDS011;37843;53.266;6.746;2022-09-01T06:43:31;2.95;;;1.67;;
51778;SDS011;37843;53.266;6.746;2022-09-01T06:45:59;1.92;;;1.60;;
51778;SDS011;37843;53.266;6.746;2022-09-01T06:48:26;1.90;;;1.70;;
51778;SDS011;37843;53.266;6.746;2022-09-01T06:50:57;3.80;;;1.50;;
51778;SDS011;37843;53.266;6.746;2022-09-01T06:53:24;2.88;;;1.70;;
51778;SDS011;37843;53.266;6.746;2022-09-01T06:55:50;2.03;;;1.40;;
51778;SDS011;37843;53.266;6.746;2022-09-01T06:58:17;1.88;;;1.50;;
51778;SDS011;37843;53.266;6.746;2022-09-01T07:00:43;4.07;;;1.73;;
51778;SDS011;37843;53.266;6.746;2022-09-01T07:03:11;2.22;;;1.50;;
51778;SDS011;37843;53.266;6.746;2022-09-01T07:05:41;1.98;;;1.27;;
51778;SDS011;37843;53.266;6.746;2022-09-01T07:08:10;1.60;;;1.50;;
51778;SDS011;37843;53.266;6.746;2022-09-01T07:10:48;1.85;;;1.67;;
51778;SDS011;37843;53.266;6.746;2022-09-01T07:13:16;1.98;;;1.70;;
51778;SDS011;37843;53.266;6.746;2022-09-01T07:15:47;3.20;;;1.58;;
51778;SDS011;37843;53.266;6.746;2022-09-01T07:18:17;3.47;;;1.70;;
51778;SDS011;37843;53.266;6.746;2022-09-01T07:20:45;5.15;;;1.88;;
51778;SDS011;37843;53.266;6.746;2022-09-01T07:23:13;2.92;;;1.40;;
51778;SDS011;37843;53.266;6.746;2022-09-01T07:25:41;2.45;;;1.42;;
51778;SDS011;37843;53.266;6.746;2022-09-01T07:28:08;3.22;;;1.80;;
51778;SDS011;37843;53.266;6.746;2022-09-01T07:30:39;1.83;;;1.33;;
51778;SDS011;37843;53.266;6.746;2022-09-01T07:33:05;1.50;;;1.38;;
51778;SDS011;37843;53.266;6.746;2022-09-01T07:35:35;2.28;;;1.40;;
51778;SDS011;37843;53.266;6.746;2022-09-01T07:38:02;4.13;;;1.50;;
51778;SDS011;37843;53.266;6.746;2022-09-01T07:40:29;1.60;;;1.40;;
51778;SDS011;37843;53.266;6.746;2022-09-01T07:42:55;2.08;;;1.45;;
51778;SDS011;37843;53.266;6.746;2022-09-01T07:45:22;2.58;;;1.60;;
51778;SDS011;37843;53.266;6.746;2022-09-01T07:47:50;1.75;;;1.27;;
51778;SDS011;37843;53.266;6.746;2022-09-01T07:50:17;3.47;;;1.50;;
51778;SDS011;37843;53.266;6.746;2022-09-01T07:52:44;2.20;;;1.40;;
51778;SDS011;37843;53.266;6.746;2022-09-01T07:55:15;3.05;;;1.42;;
51778;SDS011;37843;53.266;6.746;2022-09-01T07:57:43;2.83;;;1.55;;
51778;SDS011;37843;53.266;6.746;2022-09-01T08:00:13;3.97;;;1.60;;
51778;SDS011;37843;53.266;6.746;2022-09-01T08:02:43;2.88;;;1.80;;
51778;SDS011;37843;53.266;6.746;2022-09-01T08:05:12;2.10;;;1.75;;
51778;SDS011;37843;53.266;6.746;2022-09-01T08:07:40;3.72;;;1.85;;
51778;SDS011;37843;53.266;6.746;2022-09-01T08:10:07;2.63;;;2.00;;
51778;SDS011;37843;53.266;6.746;2022-09-01T08:12:33;2.60;;;2.00;;
51778;SDS011;37843;53.266;6.746;2022-09-01T08:15:00;2.00;;;1.50;;
51778;SDS011;37843;53.266;6.746;2022-09-01T08:17:27;2.55;;;1.67;;
51778;SDS011;37843;53.266;6.746;2022-09-01T08:19:53;2.05;;;1.45;;
51778;SDS011;37843;53.266;6.746;2022-09-01T08:22:19;2.28;;;1.58;;
51778;SDS011;37843;53.266;6.746;2022-09-01T08:24:48;2.58;;;1.33;;
51778;SDS011;37843;53.266;6.746;2022-09-01T08:27:14;2.08;;;1.52;;
51778;SDS011;37843;53.266;6.746;2022-09-01T08:29:40;2.30;;;1.80;;
51778;SDS011;37843;53.266;6.746;2022-09-01T08:32:08;6.60;;;1.75;;
51778;SDS011;37843;53.266;6.746;2022-09-01T08:34:35;3.28;;;1.92;;
51778;SDS011;37843;53.266;6.746;2022-09-01T08:37:02;2.20;;;1.73;;
51778;SDS011;37843;53.266;6.746;2022-09-01T08:39:29;4.03;;;1.85;;
51778;SDS011;37843;53.266;6.746;2022-09-01T08:42:10;2.22;;;1.95;;
51778;SDS011;37843;53.266;6.746;2022-09-01T08:47:26;3.00;;;1.60;;
51778;SDS011;37843;53.266;6.746;2022-09-01T08:49:52;1.67;;;1.48;;
51778;SDS011;37843;53.266;6.746;2022-09-01T08:52:34;2.83;;;1.30;;
51778;SDS011;37843;53.266;6.746;2022-09-01T08:55:35;3.03;;;1.20;;
51778;SDS011;37843;53.266;6.746;2022-09-01T08:57:55;2.88;;;1.58;;
51778;SDS011;37843;53.266;6.746;2022-09-01T09:00:23;1.30;;;1.20;;
51778;SDS011;37843;53.266;6.746;2022-09-01T09:02:52;3.42;;;1.40;;
51778;SDS011;37843;53.266;6.746;2022-09-01T09:10:37;1.08;;;1.02;;
51778;SDS011;37843;53.266;6.746;2022-09-01T09:13:20;1.33;;;1.13;;
51778;SDS011;37843;53.266;6.746;2022-09-01T09:15:51;1.15;;;0.90;;
51778;SDS011;37843;53.266;6.746;2022-09-01T09:18:32;3.53;;;1.70;;
51778;SDS011;37843;53.266;6.746;2022-09-01T09:21:07;2.17;;;1.20;;
51778;SDS011;37843;53.266;6.746;2022-09-01T09:23:35;2.47;;;1.40;;
51778;SDS011;37843;53.266;6.746;2022-09-01T09:26:03;2.13;;;1.10;;
51778;SDS011;37843;53.266;6.746;2022-09-01T09:28:29;3.03;;;1.08;;
51778;SDS011;37843;53.266;6.746;2022-09-01T09:33:40;1.25;;;1.15;;
51778;SDS011;37843;53.266;6.746;2022-09-01T09:36:18;2.70;;;1.20;;
51778;SDS011;37843;53.266;6.746;2022-09-01T09:38:45;1.20;;;1.10;;
51778;SDS011;37843;53.266;6.746;2022-09-01T09:43:48;1.40;;;1.08;;
51778;SDS011;37843;53.266;6.746;2022-09-01T09:51:37;1.30;;;1.02;;
51778;SDS011;37843;53.266;6.746;2022-09-01T09:56:37;4.53;;;1.15;;
51778;SDS011;37843;53.266;6.746;2022-09-01T09:59:16;1.45;;;0.68;;
51778;SDS011;37843;53.266;6.746;2022-09-01T10:01:43;0.98;;;0.75;;
51778;SDS011;37843;53.266;6.746;2022-09-01T10:04:09;1.10;;;1.00;;
51778;SDS011;37843;53.266;6.746;2022-09-01T10:06:40;1.73;;;1.00;;
51778;SDS011;37843;53.266;6.746;2022-09-01T10:09:14;2.97;;;0.95;;
51778;SDS011;37843;53.266;6.746;2022-09-01T10:11:43;1.55;;;0.90;;
51778;SDS011;37843;53.266;6.746;2022-09-01T10:14:19;3.58;;;0.70;;
51778;SDS011;37843;53.266;6.746;2022-09-01T10:16:48;4.18;;;1.35;;
51778;SDS011;37843;53.266;6.746;2022-09-01T10:19:15;2.28;;;1.17;;
51778;SDS011;37843;53.266;6.746;2022-09-01T10:21:42;2.63;;;1.20;;
51778;SDS011;37843;53.266;6.746;2022-09-01T10:26:41;1.35;;;1.00;;
51778;SDS011;37843;53.266;6.746;2022-09-01T10:29:42;2.00;;;1.13;;
51778;SDS011;37843;53.266;6.746;2022-09-01T10:32:01;1.50;;;0.93;;
51778;SDS011;37843;53.266;6.746;2022-09-01T10:34:33;2.05;;;0.98;;
51778;SDS011;37843;53.266;6.746;2022-09-01T10:37:04;2.33;;;1.10;;
51778;SDS011;37843;53.266;6.746;2022-09-01T10:39:31;1.20;;;1.10;;
51778;SDS011;37843;53.266;6.746;2022-09-01T10:41:58;2.25;;;1.00;;
51778;SDS011;37843;53.266;6.746;2022-09-01T10:44:35;1.83;;;1.17;;
51778;SDS011;37843;53.266;6.746;2022-09-01T10:47:12;3.13;;;1.15;;
51778;SDS011;37843;53.266;6.746;2022-09-01T10:55:00;1.40;;;1.10;;
51778;SDS011;37843;53.266;6.746;2022-09-01T11:05:57;1.67;;;0.60;;
51778;SDS011;37843;53.266;6.746;2022-09-01T11:10:58;3.20;;;1.48;;
51778;SDS011;37843;53.266;6.746;2022-09-01T11:16:19;1.60;;;0.93;;
51778;SDS011;37843;53.266;6.746;2022-09-01T11:18:43;2.65;;;0.98;;
51778;SDS011;37843;53.266;6.746;2022-09-01T11:21:14;2.28;;;0.90;;
51778;SDS011;37843;53.266;6.746;2022-09-01T11:23:42;1.52;;;0.80;;
51778;SDS011;37843;53.266;6.746;2022-09-01T11:28:55;0.60;;;0.60;;
51778;SDS011;37843;53.266;6.746;2022-09-01T11:31:25;2.13;;;0.90;;
51778;SDS011;37843;53.266;6.746;2022-09-01T11:34:02;1.42;;;0.77;;
51778;SDS011;37843;53.266;6.746;2022-09-01T11:44:15;3.25;;;1.02;;
51778;SDS011;37843;53.266;6.746;2022-09-01T11:46:43;0.88;;;0.70;;
51778;SDS011;37843;53.266;6.746;2022-09-01T11:49:52;1.25;;;0.95;;
51778;SDS011;37843;53.266;6.746;2022-09-01T11:51:59;1.90;;;0.90;;
51778;SDS011;37843;53.266;6.746;2022-09-01T11:54:39;1.70;;;0.90;;
51778;SDS011;37843;53.266;6.746;2022-09-01T11:57:16;6.53;;;1.08;;
51778;SDS011;37843;53.266;6.746;2022-09-01T11:59:42;2.05;;;1.30;;
51778;SDS011;37843;53.266;6.746;2022-09-01T12:02:15;1.48;;;1.00;;
51778;SDS011;37843;53.266;6.746;2022-09-01T12:04:41;2.30;;;0.85;;
51778;SDS011;37843;53.266;6.746;2022-09-01T12:07:12;0.73;;;0.73;;
51778;SDS011;37843;53.266;6.746;2022-09-01T12:09:43;1.40;;;1.13;;
51778;SDS011;37843;53.266;6.746;2022-09-01T12:12:27;2.47;;;0.80;;
51778;SDS011;37843;53.266;6.746;2022-09-01T12:14:57;3.67;;;0.98;;
51778;SDS011;37843;53.266;6.746;2022-09-01T12:17:23;0.82;;;0.80;;
51778;SDS011;37843;53.266;6.746;2022-09-01T12:19:49;4.70;;;1.10;;
51778;SDS011;37843;53.266;6.746;2022-09-01T12:22:16;1.30;;;0.77;;
51778;SDS011;37843;53.266;6.746;2022-09-01T12:24:47;2.75;;;0.88;;
51778;SDS011;37843;53.266;6.746;2022-09-01T12:27:14;1.20;;;1.00;;
51778;SDS011;37843;53.266;6.746;2022-09-01T12:29:41;1.55;;;0.82;;
51778;SDS011;37843;53.266;6.746;2022-09-01T12:32:08;2.08;;;0.90;;
51778;SDS011;37843;53.266;6.746;2022-09-01T12:34:37;1.20;;;0.88;;
51778;SDS011;37843;53.266;6.746;2022-09-01T12:37:05;1.38;;;0.90;;
51778;SDS011;37843;53.266;6.746;2022-09-01T12:39:33;2.20;;;0.75;;
51778;SDS011;37843;53.266;6.746;2022-09-01T12:42:04;0.70;;;0.65;;
51778;SDS011;37843;53.266;6.746;2022-09-01T12:47:07;3.17;;;0.93;;
51778;SDS011;37843;53.266;6.746;2022-09-01T12:54:31;1.42;;;0.95;;
51778;SDS011;37843;53.266;6.746;2022-09-01T12:56:57;5.60;;;1.00;;
51778;SDS011;37843;53.266;6.746;2022-09-01T12:59:24;0.70;;;0.70;;
51778;SDS011;37843;53.266;6.746;2022-09-01T13:01:51;3.75;;;0.88;;
51778;SDS011;37843;53.266;6.746;2022-09-01T13:04:25;0.77;;;0.60;;
51778;SDS011;37843;53.266;6.746;2022-09-01T13:07:00;2.22;;;1.10;;
51778;SDS011;37843;53.266;6.746;2022-09-01T13:09:27;1.27;;;0.93;;
51778;SDS011;37843;53.266;6.746;2022-09-01T13:12:07;0.88;;;0.45;;
51778;SDS011;37843;53.266;6.746;2022-09-01T13:14:34;0.98;;;0.57;;
51778;SDS011;37843;53.266;6.746;2022-09-01T13:17:00;1.00;;;0.75;;
51778;SDS011;37843;53.266;6.746;2022-09-01T13:19:26;0.70;;;0.60;;
51778;SDS011;37843;53.266;6.746;2022-09-01T13:21:52;1.05;;;0.80;;
51778;SDS011;37843;53.266;6.746;2022-09-01T13:24:18;2.15;;;0.77;;
51778;SDS011;37843;53.266;6.746;2022-09-01T13:26:44;5.28;;;1.10;;
51778;SDS011;37843;53.266;6.746;2022-09-01T13:29:18;4.32;;;1.10;;
51778;SDS011;37843;53.266;6.746;2022-09-01T13:31:44;1.17;;;1.00;;
51778;SDS011;37843;53.266;6.746;2022-09-01T13:34:10;0.75;;;0.70;;
51778;SDS011;37843;53.266;6.746;2022-09-01T13:36:37;4.05;;;1.13;;
51778;SDS011;37843;53.266;6.746;2022-09-01T13:39:03;1.15;;;0.80;;
51778;SDS011;37843;53.266;6.746;2022-09-01T13:41:29;1.42;;;0.80;;
51778;SDS011;37843;53.266;6.746;2022-09-01T13:43:55;0.98;;;0.77;;
51778;SDS011;37843;53.266;6.746;2022-09-01T13:46:22;1.45;;;0.70;;
51778;SDS011;37843;53.266;6.746;2022-09-01T13:48:48;2.50;;;0.98;;
51778;SDS011;37843;53.266;6.746;2022-09-01T13:51:26;0.82;;;0.70;;
51778;SDS011;37843;53.266;6.746;2022-09-01T13:53:53;1.08;;;0.60;;
51778;SDS011;37843;53.266;6.746;2022-09-01T13:56:19;0.82;;;0.65;;
51778;SDS011;37843;53.266;6.746;2022-09-01T13:58:45;1.00;;;0.88;;
51778;SDS011;37843;53.266;6.746;2022-09-01T14:01:12;2.47;;;0.73;;
51778;SDS011;37843;53.266;6.746;2022-09-01T14:03:39;2.85;;;0.77;;
51778;SDS011;37843;53.266;6.746;2022-09-01T14:06:08;2.38;;;0.63;;
51778;SDS011;37843;53.266;6.746;2022-09-01T14:08:34;2.05;;;0.60;;
51778;SDS011;37843;53.266;6.746;2022-09-01T14:11:00;1.40;;;0.57;;
51778;SDS011;37843;53.266;6.746;2022-09-01T14:13:27;0.68;;;0.68;;
51778;SDS011;37843;53.266;6.746;2022-09-01T14:15:55;1.95;;;0.90;;
51778;SDS011;37843;53.266;6.746;2022-09-01T14:18:22;2.30;;;1.08;;
51778;SDS011;37843;53.266;6.746;2022-09-01T14:20:49;2.33;;;0.90;;
51778;SDS011;37843;53.266;6.746;2022-09-01T14:23:16;0.93;;;0.65;;
51778;SDS011;37843;53.266;6.746;2022-09-01T14:25:44;2.45;;;0.80;;
51778;SDS011;37843;53.266;6.746;2022-09-01T14:28:10;2.97;;;0.80;;
51778;SDS011;37843;53.266;6.746;2022-09-01T14:30:38;3.05;;;0.95;;
51778;SDS011;37843;53.266;6.746;2022-09-01T14:33:04;1.63;;;1.00;;
51778;SDS011;37843;53.266;6.746;2022-09-01T14:35:31;1.08;;;0.63;;
51778;SDS011;37843;53.266;6.746;2022-09-01T14:37:58;3.75;;;0.90;;
51778;SDS011;37843;53.266;6.746;2022-09-01T14:40:24;0.50;;;0.50;;
51778;SDS011;37843;53.266;6.746;2022-09-01T14:42:53;1.88;;;0.80;;
51778;SDS011;37843;53.266;6.746;2022-09-01T14:45:23;1.00;;;0.90;;
51778;SDS011;37843;53.266;6.746;2022-09-01T14:47:50;0.60;;;0.60;;
51778;SDS011;37843;53.266;6.746;2022-09-01T14:50:18;3.65;;;0.88;;
51778;SDS011;37843;53.266;6.746;2022-09-01T14:52:47;4.15;;;0.95;;
51778;SDS011;37843;53.266;6.746;2022-09-01T14:55:13;0.60;;;0.55;;
51778;SDS011;37843;53.266;6.746;2022-09-01T14:57:40;2.35;;;0.70;;
51778;SDS011;37843;53.266;6.746;2022-09-01T15:00:08;0.82;;;0.63;;
51778;SDS011;37843;53.266;6.746;2022-09-01T15:02:36;0.70;;;0.70;;
51778;SDS011;37843;53.266;6.746;2022-09-01T15:05:03;0.95;;;0.68;;
51778;SDS011;37843;53.266;6.746;2022-09-01T15:07:29;2.20;;;0.60;;
51778;SDS011;37843;53.266;6.746;2022-09-01T15:09:59;1.02;;;0.68;;
51778;SDS011;37843;53.266;6.746;2022-09-01T15:12:25;2.03;;;0.70;;
51778;SDS011;37843;53.266;6.746;2022-09-01T15:14:55;1.27;;;0.70;;
51778;SDS011;37843;53.266;6.746;2022-09-01T15:17:22;0.40;;;0.40;;
51778;SDS011;37843;53.266;6.746;2022-09-01T15:19:48;5.55;;;1.05;;
51778;SDS011;37843;53.266;6.746;2022-09-01T15:22:14;1.90;;;0.75;;
51778;SDS011;37843;53.266;6.746;2022-09-01T15:24:40;2.55;;;0.57;;
51778;SDS011;37843;53.266;6.746;2022-09-01T15:27:06;0.73;;;0.60;;
51778;SDS011;37843;53.266;6.746;2022-09-01T15:29:33;0.95;;;0.55;;
51778;SDS011;37843;53.266;6.746;2022-09-01T15:32:00;0.95;;;0.60;;
51778;SDS011;37843;53.266;6.746;2022-09-01T15:34:27;0.63;;;0.55;;
51778;SDS011;37843;53.266;6.746;2022-09-01T15:36:57;2.22;;;0.65;;
51778;SDS011;37843;53.266;6.746;2022-09-01T15:39:23;2.72;;;0.68;;
51778;SDS011;37843;53.266;6.746;2022-09-01T15:41:49;2.63;;;0.68;;
51778;SDS011;37843;53.266;6.746;2022-09-01T15:44:16;5.05;;;0.73;;
51778;SDS011;37843;53.266;6.746;2022-09-01T15:46:42;1.60;;;0.60;;
51778;SDS011;37843;53.266;6.746;2022-09-01T15:49:09;1.50;;;0.80;;
51778;SDS011;37843;53.266;6.746;2022-09-01T15:51:36;1.38;;;0.88;;
51778;SDS011;37843;53.266;6.746;2022-09-01T15:54:13;1.20;;;0.80;;
51778;SDS011;37843;53.266;6.746;2022-09-01T15:56:40;1.17;;;0.68;;
51778;SDS011;37843;53.266;6.746;2022-09-01T15:59:07;2.05;;;0.88;;
51778;SDS011;37843;53.266;6.746;2022-09-01T16:01:34;2.17;;;0.80;;